Terminal Aerodrome Forecast
Issued by NWS

Home | Current Version | Previous Version | Text Only | Print | Product List | Glossary On
Versions: 1 2 3 4 5 6 7 8 9 10 11 12 13 14 15
444
FTUS45 KRIW 221120
TAFCPR
TAF
KCPR 221120Z 2212/2312 22011KT P6SM SCT120
     FM221500 20012G20KT P6SM SCT110
     FM230100 20010KT P6SM SCT100
     FM230500 28012KT P6SM SCT100
     FM231000 33011KT P6SM SKC=

USA.gov is the U.S. government's official web portal to all federal, state and local government web resources and services.